createdAt,value
2018-06-24T00:00:00.808Z,90.20
2018-06-24T00:00:31.920Z,89.80
2018-06-24T00:01:03.097Z,89.90
2018-06-24T00:01:34.218Z,89.80
2018-06-24T00:02:05.373Z,89.80
2018-06-24T00:02:36.485Z,89.80
2018-06-24T00:03:07.604Z,89.80
2018-06-24T00:03:38.719Z,89.90
2018-06-24T00:04:09.948Z,90.00
2018-06-24T00:04:41.068Z,90.00
2018-06-24T00:05:12.199Z,89.90
2018-06-24T00:06:14.889Z,89.80
2018-06-24T00:06:46.009Z,89.70
2018-06-24T00:07:17.124Z,90.20
2018-06-24T00:07:48.267Z,90.00
2018-06-24T00:08:19.375Z,89.80
2018-06-24T00:08:50.496Z,89.70
2018-06-24T00:09:21.612Z,89.80
2018-06-24T00:09:52.732Z,89.80
2018-06-24T00:10:23.862Z,89.90
2018-06-24T00:10:54.988Z,89.90
2018-06-24T00:11:26.105Z,89.90
2018-06-24T00:11:57.225Z,90.20
2018-06-24T00:12:28.368Z,90.00
2018-06-24T00:12:59.529Z,90.00
2018-06-24T00:13:30.645Z,90.00
2018-06-24T00:14:01.758Z,90.00
2018-06-24T00:14:32.868Z,89.90
2018-06-24T00:15:03.981Z,90.00
2018-06-24T00:15:35.093Z,89.90
2018-06-24T00:16:06.208Z,89.90
2018-06-24T00:16:37.320Z,90.00
2018-06-24T00:17:39.973Z,89.80
2018-06-24T00:18:11.125Z,89.90
2018-06-24T00:18:42.242Z,89.90
2018-06-24T00:19:13.348Z,90.00
2018-06-24T00:19:44.468Z,90.20
2018-06-24T00:20:15.587Z,89.90
2018-06-24T00:20:46.702Z,89.90
2018-06-24T00:21:17.834Z,90.00
2018-06-24T00:21:48.948Z,90.00
2018-06-24T00:22:20.092Z,89.90
2018-06-24T00:22:51.215Z,89.90
2018-06-24T00:23:22.333Z,89.90
2018-06-24T00:23:53.655Z,89.90
2018-06-24T00:24:24.800Z,90.00
2018-06-24T00:24:55.936Z,89.80
2018-06-24T00:25:27.058Z,89.80
2018-06-24T00:25:58.190Z,89.90
2018-06-24T00:26:29.397Z,89.90
2018-06-24T00:27:00.585Z,90.00
2018-06-24T00:27:31.815Z,90.00
2018-06-24T00:28:03.123Z,90.00
2018-06-24T00:28:34.324Z,90.00
2018-06-24T00:29:05.589Z,89.90
2018-06-24T00:29:36.776Z,90.00
2018-06-24T00:30:07.970Z,90.00
2018-06-24T00:30:39.092Z,90.00
2018-06-24T00:31:10.208Z,90.00
2018-06-24T00:31:41.341Z,89.90
2018-06-24T00:32:12.468Z,89.90
2018-06-24T00:32:43.608Z,89.90
2018-06-24T00:33:14.740Z,90.00
2018-06-24T00:33:45.967Z,89.80
2018-06-24T00:34:17.272Z,89.80
2018-06-24T00:34:48.398Z,89.90
2018-06-24T00:35:19.549Z,89.80
2018-06-24T00:35:50.769Z,90.00
2018-06-24T00:36:53.408Z,90.00
2018-06-24T00:37:24.529Z,90.00
2018-06-24T00:37:55.678Z,89.90
2018-06-24T00:38:26.793Z,89.90
2018-06-24T00:38:57.908Z,90.10
2018-06-24T00:39:29.186Z,89.90
2018-06-24T00:40:00.542Z,89.90
2018-06-24T00:40:31.665Z,90.00
2018-06-24T00:41:02.772Z,89.90
2018-06-24T00:41:33.950Z,89.90
2018-06-24T00:42:05.124Z,89.90
2018-06-24T00:42:36.271Z,90.00
2018-06-24T00:43:07.477Z,89.80
2018-06-24T00:43:38.639Z,90.00
2018-06-24T00:44:09.748Z,90.00
2018-06-24T00:44:40.868Z,90.00
2018-06-24T00:45:12.036Z,90.30
2018-06-24T00:45:43.242Z,90.00
2018-06-24T00:46:14.357Z,90.00
2018-06-24T00:46:45.482Z,90.00
2018-06-24T00:47:16.661Z,90.00
2018-06-24T00:47:47.967Z,90.00
2018-06-24T00:48:19.137Z,89.90
2018-06-24T00:48:50.257Z,89.80
2018-06-24T00:49:21.373Z,90.00
2018-06-24T00:49:52.498Z,89.90
2018-06-24T00:50:23.613Z,89.80
2018-06-24T00:50:54.874Z,89.90
2018-06-24T00:51:26.078Z,89.90
2018-06-24T00:51:57.222Z,89.80
2018-06-24T00:52:28.341Z,89.80
2018-06-24T00:52:59.498Z,89.90
2018-06-24T00:53:30.628Z,89.80
2018-06-24T00:54:01.742Z,90.00
2018-06-24T00:54:32.861Z,90.00
2018-06-24T00:55:03.969Z,89.90
2018-06-24T00:55:35.085Z,89.90
2018-06-24T00:56:06.204Z,89.80
2018-06-24T00:56:37.336Z,89.90
2018-06-24T00:57:08.449Z,90.00
2018-06-24T00:57:39.664Z,89.90
2018-06-24T00:58:10.797Z,89.90
2018-06-24T00:58:41.905Z,89.90
2018-06-24T00:59:13.023Z,89.90
2018-06-24T00:59:44.132Z,89.90
2018-06-24T01:00:15.266Z,89.90
2018-06-24T01:00:46.505Z,89.90
2018-06-24T01:01:17.640Z,90.00
2018-06-24T01:01:48.744Z,89.90
2018-06-24T01:02:19.860Z,90.30
2018-06-24T01:02:51.021Z,90.00
2018-06-24T01:03:22.140Z,90.30
2018-06-24T01:03:53.257Z,90.00
2018-06-24T01:04:24.368Z,89.90
2018-06-24T01:04:55.484Z,89.90
2018-06-24T01:05:26.596Z,89.90
2018-06-24T01:05:57.728Z,89.90
2018-06-24T01:06:28.870Z,89.80
2018-06-24T01:07:00.021Z,89.80
2018-06-24T01:07:31.148Z,89.80
2018-06-24T01:08:02.288Z,89.90
2018-06-24T01:08:33.400Z,89.90
2018-06-24T01:09:04.516Z,90.00
2018-06-24T01:09:35.824Z,90.00
2018-06-24T01:10:06.953Z,90.00
2018-06-24T01:10:38.172Z,90.00
2018-06-24T01:11:09.324Z,90.00
2018-06-24T01:11:40.441Z,90.00
2018-06-24T01:12:11.592Z,89.90
2018-06-24T01:12:42.704Z,89.90
2018-06-24T01:13:13.847Z,90.00
2018-06-24T01:13:45.123Z,90.00
2018-06-24T01:14:16.293Z,90.00
2018-06-24T01:14:47.734Z,89.90
2018-06-24T01:15:18.856Z,90.00
2018-06-24T01:15:50.094Z,89.90
2018-06-24T01:16:21.285Z,89.90
2018-06-24T01:16:52.450Z,90.00
2018-06-24T01:17:23.569Z,90.00
2018-06-24T01:17:54.688Z,89.90
2018-06-24T01:18:25.829Z,89.90
2018-06-24T01:18:56.942Z,90.00
2018-06-24T01:19:28.060Z,90.00
2018-06-24T01:19:59.181Z,90.00
2018-06-24T01:20:30.426Z,90.00
2018-06-24T01:21:02.513Z,90.00
2018-06-24T01:21:33.620Z,90.30
2018-06-24T01:22:04.733Z,90.00
2018-06-24T01:22:35.997Z,90.00
2018-06-24T01:23:07.331Z,90.00
2018-06-24T01:24:10.127Z,90.00
2018-06-24T01:24:41.254Z,90.10
2018-06-24T01:25:12.383Z,90.00
2018-06-24T01:25:43.504Z,90.10
2018-06-24T01:26:14.617Z,90.10
2018-06-24T01:26:45.744Z,90.30
2018-06-24T01:27:16.865Z,90.00
2018-06-24T01:27:47.976Z,90.00
2018-06-24T01:28:19.117Z,90.00
2018-06-24T01:28:50.233Z,89.90
2018-06-24T01:29:21.348Z,89.90
2018-06-24T01:29:52.468Z,89.90
2018-06-24T01:30:23.577Z,89.90
2018-06-24T01:30:54.692Z,89.90
2018-06-24T01:31:25.805Z,90.00
2018-06-24T01:31:56.916Z,89.90
2018-06-24T01:32:28.032Z,89.90
2018-06-24T01:32:59.147Z,90.00
2018-06-24T01:33:30.283Z,90.00
2018-06-24T01:34:01.397Z,90.00
2018-06-24T01:34:32.512Z,90.00
2018-06-24T01:35:03.628Z,89.90
2018-06-24T01:35:34.743Z,89.90
2018-06-24T01:36:05.852Z,89.90
2018-06-24T01:36:36.968Z,89.90
2018-06-24T01:37:08.084Z,89.90
2018-06-24T01:37:39.222Z,90.00
2018-06-24T01:38:10.333Z,90.00
2018-06-24T01:38:41.477Z,90.00
2018-06-24T01:39:12.590Z,90.00
2018-06-24T01:39:43.709Z,89.90
2018-06-24T01:40:14.829Z,90.30
2018-06-24T01:40:46.025Z,90.00
2018-06-24T01:41:17.209Z,90.10
2018-06-24T01:41:48.329Z,90.00
2018-06-24T01:42:19.464Z,90.00
2018-06-24T01:42:50.575Z,90.00
2018-06-24T01:43:21.717Z,90.00
2018-06-24T01:43:52.828Z,90.00
2018-06-24T01:44:23.943Z,90.00
2018-06-24T01:44:55.052Z,89.90
2018-06-24T01:45:26.164Z,90.00
2018-06-24T01:45:57.281Z,89.90
2018-06-24T01:46:28.401Z,89.90
2018-06-24T01:46:59.520Z,90.00
2018-06-24T01:47:30.667Z,90.20
2018-06-24T01:48:01.766Z,90.20
2018-06-24T01:48:32.906Z,90.10
2018-06-24T01:49:04.020Z,90.00
2018-06-24T01:49:35.266Z,90.20
2018-06-24T01:50:06.377Z,90.00
2018-06-24T01:50:37.505Z,89.90
2018-06-24T01:51:08.622Z,89.90
2018-06-24T01:51:39.741Z,90.00
2018-06-24T01:52:10.860Z,90.00
2018-06-24T01:52:41.972Z,90.00
2018-06-24T01:53:13.085Z,90.10
2018-06-24T01:53:44.228Z,90.00
2018-06-24T01:54:15.340Z,90.00
2018-06-24T01:54:46.449Z,90.00
2018-06-24T01:55:17.565Z,90.00
2018-06-24T01:55:48.784Z,90.00
2018-06-24T01:56:19.951Z,90.10
2018-06-24T01:56:51.066Z,90.10
2018-06-24T01:57:22.185Z,90.00
2018-06-24T01:57:53.300Z,90.00
2018-06-24T01:58:24.416Z,90.00
2018-06-24T01:58:55.561Z,90.00
2018-06-24T01:59:26.676Z,90.00
2018-06-24T01:59:57.792Z,90.00
2018-06-24T02:00:31.656Z,90.00
2018-06-24T02:01:02.777Z,90.00
2018-06-24T02:01:33.889Z,90.10
2018-06-24T02:02:05.011Z,90.00
2018-06-24T02:02:36.121Z,90.00
2018-06-24T02:03:07.236Z,90.00
2018-06-24T02:03:38.385Z,90.00
2018-06-24T02:04:09.504Z,89.90
2018-06-24T02:04:40.616Z,90.00
2018-06-24T02:05:11.733Z,90.00
2018-06-24T02:05:42.849Z,90.00
2018-06-24T02:06:13.965Z,89.90
2018-06-24T02:06:45.085Z,89.90
2018-06-24T02:07:16.197Z,90.00
2018-06-24T02:07:47.316Z,90.00
2018-06-24T02:08:18.433Z,90.00
2018-06-24T02:08:49.617Z,90.10
2018-06-24T02:09:20.712Z,90.00
2018-06-24T02:09:51.823Z,90.00
2018-06-24T02:10:22.941Z,90.00
2018-06-24T02:10:54.174Z,90.10
2018-06-24T02:11:25.396Z,90.10
2018-06-24T02:11:56.504Z,90.00
2018-06-24T02:12:27.622Z,90.00
2018-06-24T02:12:58.739Z,90.00
2018-06-24T02:13:29.853Z,90.00
2018-06-24T02:14:00.965Z,90.00
2018-06-24T02:14:32.075Z,90.00
2018-06-24T02:15:03.193Z,90.00
2018-06-24T02:15:34.304Z,90.00
2018-06-24T02:16:05.416Z,90.00
2018-06-24T02:16:36.524Z,90.00
2018-06-24T02:17:07.636Z,90.00
2018-06-24T02:17:38.758Z,90.00
2018-06-24T02:18:09.881Z,90.00
2018-06-24T02:18:41.004Z,90.00
2018-06-24T02:19:12.121Z,90.00
2018-06-24T02:19:43.236Z,90.00
2018-06-24T02:20:14.353Z,90.00
2018-06-24T02:20:45.475Z,90.00
2018-06-24T02:21:16.584Z,90.00
2018-06-24T02:21:47.696Z,90.00
2018-06-24T02:22:18.820Z,90.00
2018-06-24T02:22:49.936Z,90.00
2018-06-24T02:23:21.048Z,90.00
2018-06-24T02:23:52.188Z,90.00
2018-06-24T02:24:23.301Z,90.00
2018-06-24T02:24:54.420Z,90.00
2018-06-24T02:25:25.661Z,90.00
2018-06-24T02:25:56.864Z,90.00
2018-06-24T02:26:27.979Z,90.00
2018-06-24T02:26:59.094Z,90.00
2018-06-24T02:27:30.209Z,90.00
2018-06-24T02:28:32.832Z,90.10
2018-06-24T02:29:03.981Z,90.10
2018-06-24T02:29:35.092Z,90.00
2018-06-24T02:30:06.217Z,90.00
2018-06-24T02:30:37.333Z,90.30
2018-06-24T02:31:08.452Z,90.00
2018-06-24T02:31:39.570Z,90.10
2018-06-24T02:32:10.690Z,90.00
2018-06-24T02:32:41.813Z,90.10
2018-06-24T02:33:12.966Z,90.00
2018-06-24T02:33:44.072Z,90.00
2018-06-24T02:34:15.208Z,90.00
2018-06-24T02:34:46.324Z,90.10
2018-06-24T02:35:17.441Z,90.10
2018-06-24T02:35:48.552Z,90.10
2018-06-24T02:36:19.669Z,90.10
2018-06-24T02:36:50.796Z,90.00
2018-06-24T02:37:21.908Z,90.00
2018-06-24T02:37:53.028Z,90.00
2018-06-24T02:38:24.146Z,90.00
2018-06-24T02:38:55.264Z,90.10
2018-06-24T02:39:26.412Z,90.00
2018-06-24T02:39:57.537Z,90.00
2018-06-24T02:40:28.656Z,90.00
2018-06-24T02:40:59.764Z,90.00
2018-06-24T02:41:30.881Z,90.00
2018-06-24T02:42:02.009Z,90.00
2018-06-24T02:42:33.138Z,90.00
2018-06-24T02:43:04.258Z,90.00
2018-06-24T02:43:35.377Z,90.00
2018-06-24T02:44:06.488Z,90.00
2018-06-24T02:44:37.648Z,90.00
2018-06-24T02:45:08.760Z,90.00
2018-06-24T02:45:39.877Z,90.20
2018-06-24T02:46:11.001Z,90.20
2018-06-24T02:46:42.117Z,90.10
2018-06-24T02:47:13.238Z,90.00
2018-06-24T02:47:44.358Z,90.00
2018-06-24T02:48:15.471Z,90.10
2018-06-24T02:48:46.604Z,90.40
2018-06-24T02:49:17.724Z,90.10
2018-06-24T02:49:48.860Z,90.00
2018-06-24T02:50:19.980Z,90.00
2018-06-24T02:50:51.147Z,90.00
2018-06-24T02:51:22.245Z,90.00
2018-06-24T02:51:53.356Z,90.00
2018-06-24T02:52:24.469Z,90.00
2018-06-24T02:52:55.584Z,90.00
2018-06-24T02:53:26.697Z,90.00
2018-06-24T02:53:57.821Z,90.00
2018-06-24T02:54:28.964Z,90.00
2018-06-24T02:55:00.077Z,90.00
2018-06-24T02:55:31.193Z,90.00
2018-06-24T02:56:02.309Z,90.10
2018-06-24T02:56:33.425Z,90.10
2018-06-24T02:57:04.536Z,90.00
2018-06-24T02:57:35.649Z,90.00
2018-06-24T02:58:06.762Z,90.00
2018-06-24T02:58:37.879Z,90.00
2018-06-24T02:59:08.992Z,90.00
2018-06-24T02:59:40.140Z,90.00
2018-06-24T03:00:11.252Z,90.00
2018-06-24T03:00:42.372Z,90.00
2018-06-24T03:01:13.489Z,90.00
2018-06-24T03:01:44.604Z,90.10
2018-06-24T03:02:15.727Z,90.10
2018-06-24T03:02:46.844Z,90.00
2018-06-24T03:03:17.955Z,90.10
2018-06-24T03:03:49.077Z,90.00
2018-06-24T03:04:20.196Z,90.00
2018-06-24T03:04:51.330Z,90.00
2018-06-24T03:05:22.456Z,90.00
2018-06-24T03:05:53.570Z,90.10
2018-06-24T03:06:24.697Z,90.20
2018-06-24T03:06:55.813Z,90.10
2018-06-24T03:07:26.928Z,90.00
2018-06-24T03:07:58.037Z,90.10
2018-06-24T03:08:29.156Z,90.20
2018-06-24T03:09:00.277Z,90.10
2018-06-24T03:09:31.413Z,90.20
2018-06-24T03:10:34.168Z,90.10
2018-06-24T03:11:05.294Z,90.10
2018-06-24T03:11:36.404Z,90.00
2018-06-24T03:12:07.526Z,90.40
2018-06-24T03:12:38.632Z,90.10
2018-06-24T03:13:09.748Z,90.10
2018-06-24T03:13:40.864Z,90.20
2018-06-24T03:14:11.976Z,90.20
2018-06-24T03:14:43.120Z,90.10
2018-06-24T03:15:14.237Z,90.20
2018-06-24T03:15:45.348Z,90.20
2018-06-24T03:16:16.464Z,90.20
2018-06-24T03:16:47.576Z,90.10
2018-06-24T03:17:18.698Z,90.10
2018-06-24T03:17:49.811Z,90.10
2018-06-24T03:18:20.932Z,90.00
2018-06-24T03:18:52.060Z,90.00
2018-06-24T03:19:23.181Z,90.10
2018-06-24T03:19:54.323Z,90.00
2018-06-24T03:20:25.441Z,90.00
2018-06-24T03:20:56.552Z,90.10
2018-06-24T03:21:27.664Z,90.00
2018-06-24T03:21:58.788Z,89.90
2018-06-24T03:22:29.900Z,90.10
2018-06-24T03:23:01.012Z,90.10
2018-06-24T03:23:32.128Z,90.10
2018-06-24T03:24:03.235Z,90.10
2018-06-24T03:24:34.352Z,90.10
2018-06-24T03:25:05.488Z,90.10
2018-06-24T03:25:36.601Z,90.00
2018-06-24T03:26:07.723Z,90.10
2018-06-24T03:26:38.837Z,90.10
2018-06-24T03:27:09.957Z,90.00
2018-06-24T03:27:41.075Z,90.10
2018-06-24T03:28:12.192Z,90.10
2018-06-24T03:28:43.301Z,90.10
2018-06-24T03:29:14.420Z,90.10
2018-06-24T03:29:45.560Z,90.00
2018-06-24T03:30:16.680Z,90.10
2018-06-24T03:30:47.795Z,90.20
2018-06-24T03:31:18.919Z,90.40
2018-06-24T03:31:50.028Z,90.00
2018-06-24T03:32:21.140Z,90.00
2018-06-24T03:32:52.258Z,90.00
2018-06-24T03:33:23.363Z,90.00
2018-06-24T03:33:54.484Z,90.20
2018-06-24T03:34:25.601Z,90.10
2018-06-24T03:34:56.748Z,89.90
2018-06-24T03:35:27.861Z,90.00
2018-06-24T03:35:58.972Z,90.00
2018-06-24T03:36:30.081Z,90.00
2018-06-24T03:37:01.192Z,90.10
2018-06-24T03:37:32.305Z,90.00
2018-06-24T03:38:03.420Z,90.00
2018-06-24T03:38:34.527Z,90.00
2018-06-24T03:39:05.653Z,89.70
2018-06-24T03:39:36.767Z,90.00
2018-06-24T03:40:07.911Z,90.00
2018-06-24T03:40:39.032Z,90.10
2018-06-24T03:41:10.152Z,90.00
2018-06-24T03:41:41.480Z,90.00
2018-06-24T03:42:12.674Z,90.00
2018-06-24T03:42:43.795Z,90.10
2018-06-24T03:43:14.909Z,90.10
2018-06-24T03:43:46.016Z,90.10
2018-06-24T03:44:17.129Z,90.10
2018-06-24T03:44:48.236Z,90.10
2018-06-24T03:45:19.372Z,90.00
2018-06-24T03:45:50.485Z,90.20
2018-06-24T03:46:21.597Z,90.10
2018-06-24T03:46:52.708Z,90.20
2018-06-24T03:47:23.830Z,90.00
2018-06-24T03:47:54.940Z,90.10
2018-06-24T03:48:26.052Z,90.20
2018-06-24T03:48:57.161Z,90.20
2018-06-24T03:49:28.272Z,90.10
2018-06-24T03:49:59.413Z,90.10
2018-06-24T03:50:30.529Z,90.10
2018-06-24T03:51:01.675Z,90.10
2018-06-24T03:51:32.784Z,90.10
2018-06-24T03:52:03.901Z,90.20
2018-06-24T03:52:35.012Z,90.10
2018-06-24T03:53:06.126Z,90.10
2018-06-24T03:53:37.248Z,90.00
2018-06-24T03:54:08.364Z,90.10
2018-06-24T03:54:39.476Z,90.10
2018-06-24T03:55:10.699Z,90.20
2018-06-24T03:55:41.845Z,90.10
2018-06-24T03:56:12.960Z,90.10
2018-06-24T03:56:44.223Z,90.10
2018-06-24T03:57:15.401Z,90.20
2018-06-24T03:57:46.513Z,90.30
2018-06-24T03:58:17.627Z,90.30
2018-06-24T03:58:48.745Z,90.20
2018-06-24T03:59:19.887Z,90.20
2018-06-24T03:59:50.995Z,90.10
2018-06-24T04:00:22.116Z,90.10
2018-06-24T04:00:53.229Z,90.10
2018-06-24T04:01:24.345Z,90.10
2018-06-24T04:01:55.460Z,90.20
2018-06-24T04:02:26.576Z,90.10
2018-06-24T04:02:57.692Z,90.10
2018-06-24T04:03:28.809Z,90.10
2018-06-24T04:03:59.923Z,90.10
2018-06-24T04:04:31.041Z,90.10
2018-06-24T04:05:02.180Z,90.20
2018-06-24T04:05:33.288Z,90.20
2018-06-24T04:06:04.405Z,90.20
2018-06-24T04:06:35.519Z,90.30
2018-06-24T04:07:06.632Z,90.20
2018-06-24T04:07:37.749Z,90.20
2018-06-24T04:08:08.865Z,90.10
2018-06-24T04:08:39.984Z,90.10
2018-06-24T04:09:11.109Z,90.10
2018-06-24T04:09:42.229Z,90.20
2018-06-24T04:10:13.367Z,90.20
2018-06-24T04:11:15.988Z,90.30
2018-06-24T04:11:47.325Z,90.20
2018-06-24T04:12:18.509Z,90.20
2018-06-24T04:12:49.623Z,90.10
2018-06-24T04:13:52.275Z,90.20
2018-06-24T04:14:23.387Z,90.20
2018-06-24T04:14:54.492Z,90.10
2018-06-24T04:15:25.607Z,90.20
2018-06-24T04:15:56.720Z,90.20
2018-06-24T04:16:27.832Z,90.20
2018-06-24T04:16:58.945Z,90.20
2018-06-24T04:17:30.066Z,90.20
2018-06-24T04:18:01.188Z,90.10
2018-06-24T04:18:32.309Z,90.10
2018-06-24T04:19:03.425Z,90.10
2018-06-24T04:19:34.544Z,90.20
2018-06-24T04:20:05.656Z,90.20
2018-06-24T04:20:36.800Z,90.30
2018-06-24T04:21:07.916Z,90.20
2018-06-24T04:21:39.037Z,90.10
2018-06-24T04:22:10.148Z,90.10
2018-06-24T04:22:41.265Z,90.10
2018-06-24T04:23:12.383Z,90.20
2018-06-24T04:23:43.495Z,90.30
2018-06-24T04:24:14.615Z,90.20
2018-06-24T04:24:45.737Z,90.20
2018-06-24T04:25:16.901Z,90.20
2018-06-24T04:25:48.069Z,90.10
2018-06-24T04:26:19.154Z,90.10
2018-06-24T04:26:50.605Z,90.10
2018-06-24T04:27:21.780Z,90.10
2018-06-24T04:27:52.901Z,90.10
2018-06-24T04:28:55.519Z,90.20
2018-06-24T04:29:26.628Z,90.20
2018-06-24T04:29:57.749Z,90.20
2018-06-24T04:30:28.888Z,90.20
2018-06-24T04:31:00.018Z,90.10
2018-06-24T04:31:31.148Z,90.30
2018-06-24T04:32:02.301Z,90.10
2018-06-24T04:32:33.408Z,90.20
2018-06-24T04:33:04.521Z,90.20
2018-06-24T04:33:35.639Z,90.20
2018-06-24T04:34:06.748Z,90.10
2018-06-24T04:34:37.852Z,90.10
2018-06-24T04:35:08.962Z,89.90
2018-06-24T04:35:40.108Z,90.10
2018-06-24T04:36:11.221Z,90.30
2018-06-24T04:36:42.341Z,90.20
2018-06-24T04:37:13.452Z,90.20
2018-06-24T04:37:44.580Z,90.20
2018-06-24T04:38:15.700Z,90.20
2018-06-24T04:38:46.813Z,90.20
2018-06-24T04:39:17.925Z,90.20
2018-06-24T04:39:49.045Z,90.20
2018-06-24T04:40:20.162Z,90.10
2018-06-24T04:40:51.300Z,90.20
2018-06-24T04:41:22.419Z,90.20
2018-06-24T04:41:53.536Z,90.20
2018-06-24T04:42:24.658Z,90.10
2018-06-24T04:42:55.772Z,90.20
2018-06-24T04:43:26.897Z,90.30
2018-06-24T04:43:58.004Z,90.30
2018-06-24T04:44:29.112Z,90.20
2018-06-24T04:45:00.234Z,90.10
2018-06-24T04:45:31.368Z,90.10
2018-06-24T04:46:02.477Z,90.10
2018-06-24T04:46:33.588Z,90.10
2018-06-24T04:47:04.717Z,90.20
2018-06-24T04:47:35.837Z,90.30
2018-06-24T04:48:06.956Z,90.20
2018-06-24T04:48:38.069Z,90.20
2018-06-24T04:49:09.176Z,90.20
2018-06-24T04:49:40.284Z,90.00
2018-06-24T04:50:11.400Z,90.20
2018-06-24T04:50:42.536Z,90.10
2018-06-24T04:51:13.656Z,90.20
2018-06-24T04:51:44.835Z,90.20
2018-06-24T04:52:15.908Z,90.30
2018-06-24T04:52:47.029Z,90.30
2018-06-24T04:53:18.141Z,90.30
2018-06-24T04:54:20.781Z,90.20
2018-06-24T04:54:51.904Z,90.30
2018-06-24T04:55:23.016Z,90.20
2018-06-24T04:55:54.161Z,90.30
2018-06-24T04:56:25.289Z,90.30
2018-06-24T04:56:56.404Z,90.30
2018-06-24T04:57:27.516Z,90.30
2018-06-24T04:57:58.636Z,90.30
2018-06-24T04:58:29.749Z,90.10
2018-06-24T04:59:00.864Z,90.10
2018-06-24T04:59:31.976Z,90.20
2018-06-24T05:00:03.094Z,90.20
2018-06-24T05:00:34.248Z,90.30
2018-06-24T05:01:05.359Z,90.20
2018-06-24T05:01:36.472Z,90.10
2018-06-24T05:02:07.580Z,90.10
2018-06-24T05:02:38.695Z,90.30
2018-06-24T05:03:09.804Z,90.30
2018-06-24T05:03:40.914Z,90.30
2018-06-24T05:04:12.035Z,90.60
2018-06-24T05:04:43.149Z,90.30
2018-06-24T05:05:14.280Z,90.20
2018-06-24T05:05:45.426Z,90.20
2018-06-24T05:06:16.532Z,90.10
2018-06-24T05:06:47.645Z,90.40
2018-06-24T05:07:18.759Z,90.30
2018-06-24T05:07:49.871Z,90.40
2018-06-24T05:08:20.987Z,90.30
2018-06-24T05:08:52.103Z,90.40
2018-06-24T05:09:23.216Z,90.40
2018-06-24T05:09:54.333Z,90.20
2018-06-24T05:10:25.462Z,90.30
2018-06-24T05:10:56.617Z,90.40
2018-06-24T05:11:27.732Z,90.30
2018-06-24T05:11:58.864Z,90.30
2018-06-24T05:12:29.981Z,90.40
2018-06-24T05:13:01.198Z,90.30
2018-06-24T05:13:32.305Z,90.40
2018-06-24T05:14:03.424Z,90.30
2018-06-24T05:14:34.540Z,90.30
2018-06-24T05:15:05.656Z,90.50
2018-06-24T05:15:36.772Z,90.20
2018-06-24T05:16:07.914Z,90.20
2018-06-24T05:16:39.028Z,90.20
2018-06-24T05:17:10.147Z,90.20
2018-06-24T05:17:41.259Z,90.30
2018-06-24T05:18:12.368Z,90.30
2018-06-24T05:18:43.477Z,90.20
2018-06-24T05:19:14.591Z,90.20
2018-06-24T05:19:45.712Z,90.10
2018-06-24T05:20:16.825Z,90.10
2018-06-24T05:20:47.981Z,90.20
2018-06-24T05:21:19.100Z,90.40
2018-06-24T05:21:50.209Z,90.20
2018-06-24T05:22:21.332Z,90.20
2018-06-24T05:22:52.448Z,90.10
2018-06-24T05:23:23.560Z,90.10
2018-06-24T05:23:54.672Z,90.20
2018-06-24T05:24:25.795Z,90.10
2018-06-24T05:24:56.903Z,90.10
2018-06-24T05:25:28.024Z,90.10
2018-06-24T05:25:59.160Z,90.10
2018-06-24T05:26:30.282Z,90.20
2018-06-24T05:27:01.407Z,90.10
2018-06-24T05:27:32.598Z,90.10
2018-06-24T05:28:03.689Z,90.10
2018-06-24T05:28:34.801Z,90.20
2018-06-24T05:29:05.919Z,90.20
2018-06-24T05:29:37.050Z,90.30
2018-06-24T05:30:08.172Z,90.20
2018-06-24T05:30:39.284Z,90.20
2018-06-24T05:31:10.424Z,90.20
2018-06-24T05:31:41.536Z,90.30
2018-06-24T05:32:12.652Z,90.30
2018-06-24T05:32:43.760Z,90.20
2018-06-24T05:33:14.895Z,90.30
2018-06-24T05:33:46.017Z,90.10
2018-06-24T05:34:17.144Z,90.10
2018-06-24T05:34:48.251Z,90.30
2018-06-24T05:35:19.377Z,90.20
2018-06-24T05:35:50.484Z,90.20
2018-06-24T05:36:21.620Z,90.10
2018-06-24T05:36:52.733Z,90.20
2018-06-24T05:37:23.852Z,90.20
2018-06-24T05:37:54.964Z,90.10
2018-06-24T05:38:26.080Z,90.20
2018-06-24T05:38:57.187Z,90.10
2018-06-24T05:39:28.308Z,90.30
2018-06-24T05:39:59.432Z,90.40
2018-06-24T05:40:30.546Z,90.40
2018-06-24T05:41:01.693Z,90.20
2018-06-24T05:41:32.808Z,90.20
2018-06-24T05:42:03.922Z,90.20
2018-06-24T05:42:35.061Z,90.20
2018-06-24T05:43:06.265Z,90.20
2018-06-24T05:43:38.184Z,90.30
2018-06-24T05:44:09.361Z,90.20
2018-06-24T05:44:40.475Z,90.20
2018-06-24T05:45:11.808Z,90.20
2018-06-24T05:45:43.095Z,90.20
2018-06-24T05:46:14.254Z,90.20
2018-06-24T05:46:45.368Z,90.30
2018-06-24T05:47:16.488Z,90.30
2018-06-24T05:47:47.617Z,90.30
2018-06-24T05:48:18.745Z,90.30
2018-06-24T05:48:49.949Z,90.30
2018-06-24T05:49:21.012Z,90.20
2018-06-24T05:49:52.125Z,90.20
2018-06-24T05:50:23.236Z,90.20
2018-06-24T05:50:54.369Z,90.30
2018-06-24T05:51:25.501Z,90.30
2018-06-24T05:51:56.608Z,90.20
2018-06-24T05:52:27.716Z,90.40
2018-06-24T05:52:58.876Z,90.40
2018-06-24T05:53:29.988Z,90.30
2018-06-24T05:54:01.109Z,90.50
2018-06-24T05:54:32.224Z,90.60
2018-06-24T05:55:03.338Z,90.40
2018-06-24T05:55:34.458Z,90.40
2018-06-24T05:56:05.573Z,90.40
2018-06-24T05:56:36.719Z,90.30
2018-06-24T05:57:07.837Z,90.40
2018-06-24T05:57:39.201Z,90.50
2018-06-24T05:58:10.312Z,90.60
2018-06-24T05:58:41.436Z,90.50
2018-06-24T05:59:12.549Z,90.40
2018-06-24T05:59:43.665Z,90.40
2018-06-24T06:00:14.782Z,90.30
2018-06-24T06:00:45.893Z,90.40
2018-06-24T06:01:17.037Z,90.40
2018-06-24T06:01:48.150Z,90.50
2018-06-24T06:02:19.264Z,90.50
2018-06-24T06:02:50.379Z,90.50
2018-06-24T06:03:21.508Z,90.60
2018-06-24T06:03:52.632Z,90.60
2018-06-24T06:04:23.744Z,90.40
2018-06-24T06:04:54.862Z,90.50
2018-06-24T06:05:25.978Z,90.40
2018-06-24T06:05:57.089Z,90.50
2018-06-24T06:06:28.236Z,90.50
2018-06-24T06:06:59.351Z,90.50
2018-06-24T06:07:30.475Z,90.80
2018-06-24T06:08:01.600Z,90.40
2018-06-24T06:08:32.728Z,90.60
2018-06-24T06:09:03.845Z,90.60
2018-06-24T06:09:34.979Z,90.50
2018-06-24T06:10:06.122Z,90.50
2018-06-24T06:10:37.237Z,90.60
2018-06-24T06:11:08.348Z,90.60
2018-06-24T06:11:39.466Z,90.50
2018-06-24T06:12:10.636Z,90.60
2018-06-24T06:12:41.786Z,90.40
2018-06-24T06:13:12.908Z,90.60
2018-06-24T06:13:44.031Z,90.50
2018-06-24T06:14:15.144Z,90.50
2018-06-24T06:14:46.265Z,90.40
2018-06-24T06:15:17.384Z,90.50
2018-06-24T06:15:48.503Z,90.40
2018-06-24T06:16:19.649Z,90.50
2018-06-24T06:16:50.764Z,90.50
2018-06-24T06:17:21.871Z,90.50
2018-06-24T06:17:52.980Z,90.40
2018-06-24T06:18:24.395Z,90.80
2018-06-24T06:18:55.568Z,90.60
2018-06-24T06:19:26.681Z,90.50
2018-06-24T06:19:57.797Z,90.50
2018-06-24T06:20:28.922Z,90.60
2018-06-24T06:21:00.077Z,90.60
2018-06-24T06:21:31.225Z,90.60
2018-06-24T06:22:02.525Z,90.60
2018-06-24T06:22:33.744Z,90.60
2018-06-24T06:23:04.855Z,90.60
2018-06-24T06:23:35.976Z,90.60
2018-06-24T06:24:07.092Z,90.60
2018-06-24T06:24:38.203Z,90.60
2018-06-24T06:25:09.317Z,90.70
2018-06-24T06:25:40.468Z,90.50
2018-06-24T06:26:11.579Z,90.60
2018-06-24T06:26:42.700Z,90.70
2018-06-24T06:27:13.809Z,90.60
2018-06-24T06:27:44.917Z,90.50
2018-06-24T06:28:16.118Z,90.40
2018-06-24T06:28:47.229Z,90.20
2018-06-24T06:29:18.345Z,90.20
2018-06-24T06:29:49.461Z,90.40
2018-06-24T06:30:20.634Z,90.40
2018-06-24T06:30:51.715Z,90.30
2018-06-24T06:31:22.829Z,90.50
2018-06-24T06:31:53.945Z,90.50
2018-06-24T06:32:26.310Z,90.30
2018-06-24T06:32:57.433Z,90.40
2018-06-24T06:33:28.556Z,90.40
2018-06-24T06:33:59.670Z,90.60
2018-06-24T06:35:02.325Z,90.70
2018-06-24T06:35:33.438Z,90.70
2018-06-24T06:36:04.553Z,90.70
2018-06-24T06:36:35.692Z,90.40
2018-06-24T06:37:06.812Z,90.40
2018-06-24T06:37:37.936Z,90.60
2018-06-24T06:38:09.075Z,90.60
2018-06-24T06:38:40.184Z,90.50
2018-06-24T06:39:11.315Z,90.70
2018-06-24T06:39:42.428Z,90.60
2018-06-24T06:40:13.549Z,90.60
2018-06-24T06:40:44.672Z,90.70
2018-06-24T06:41:15.788Z,90.50
2018-06-24T06:41:46.936Z,90.30
2018-06-24T06:42:18.054Z,90.10
2018-06-24T06:42:49.209Z,90.40
2018-06-24T06:43:20.324Z,90.60
2018-06-24T06:43:51.436Z,90.60
2018-06-24T06:44:22.682Z,90.60
2018-06-24T06:44:53.840Z,90.70
2018-06-24T06:45:25.933Z,90.60
2018-06-24T06:45:57.096Z,91.00
2018-06-24T06:46:28.250Z,90.60